sensor_id;sensor_type;location;lat;lon;timestamp;pressure;altitude;pressure_sealevel;temperature;humidity
24996;BME280;13016;52.162;21.034;2023-04-27T00:04:40;100430.51;;;9.74;50.04
24996;BME280;13016;52.162;21.034;2023-04-27T00:10:41;100426.83;;;9.67;50.25
24996;BME280;13016;52.162;21.034;2023-04-27T00:16:42;100422.55;;;9.63;50.44
24996;BME280;13016;52.162;21.034;2023-04-27T00:22:42;100423.32;;;9.49;50.60
24996;BME280;13016;52.162;21.034;2023-04-27T00:28:45;100426.35;;;9.42;50.84
24996;BME280;13016;52.162;21.034;2023-04-27T00:34:45;100432.50;;;9.39;51.07
24996;BME280;13016;52.162;21.034;2023-04-27T00:40:46;100430.69;;;9.23;51.35
24996;BME280;13016;52.162;21.034;2023-04-27T00:46:46;100437.79;;;9.26;51.57
24996;BME280;13016;52.162;21.034;2023-04-27T00:52:47;100438.77;;;9.24;51.46
24996;BME280;13016;52.162;21.034;2023-04-27T00:58:48;100442.70;;;9.04;51.81
24996;BME280;13016;52.162;21.034;2023-04-27T01:04:49;100442.03;;;8.83;52.49
24996;BME280;13016;52.162;21.034;2023-04-27T01:10:50;100446.23;;;8.73;52.87
24996;BME280;13016;52.162;21.034;2023-04-27T01:16:52;100450.30;;;8.66;52.94
24996;BME280;13016;52.162;21.034;2023-04-27T01:22:53;100451.89;;;8.67;52.97
24996;BME280;13016;52.162;21.034;2023-04-27T01:28:54;100451.52;;;8.57;53.19
24996;BME280;13016;52.162;21.034;2023-04-27T01:34:55;100456.64;;;8.49;53.54
24996;BME280;13016;52.162;21.034;2023-04-27T01:41:15;100454.19;;;8.39;53.81
24996;BME280;13016;52.162;21.034;2023-04-27T01:47:21;100457.11;;;8.37;53.94
24996;BME280;13016;52.162;21.034;2023-04-27T01:53:22;100459.54;;;8.37;53.93
24996;BME280;13016;52.162;21.034;2023-04-27T01:59:23;100468.30;;;8.31;54.11
24996;BME280;13016;52.162;21.034;2023-04-27T02:05:25;100467.55;;;8.25;54.30
24996;BME280;13016;52.162;21.034;2023-04-27T02:11:27;100468.84;;;8.24;54.39
24996;BME280;13016;52.162;21.034;2023-04-27T02:17:30;100468.45;;;8.24;54.30
24996;BME280;13016;52.162;21.034;2023-04-27T02:23:31;100469.41;;;8.44;53.94
24996;BME280;13016;52.162;21.034;2023-04-27T02:29:49;100469.55;;;8.34;53.86
24996;BME280;13016;52.162;21.034;2023-04-27T02:35:58;100467.79;;;8.34;53.99
24996;BME280;13016;52.162;21.034;2023-04-27T02:41:59;100466.30;;;8.32;53.99
24996;BME280;13016;52.162;21.034;2023-04-27T02:48:15;100464.15;;;8.22;54.16
24996;BME280;13016;52.162;21.034;2023-04-27T02:54:16;100470.56;;;8.06;54.40
24996;BME280;13016;52.162;21.034;2023-04-27T03:00:17;100479.09;;;8.11;54.79
24996;BME280;13016;52.162;21.034;2023-04-27T03:06:19;100482.61;;;8.11;54.50
24996;BME280;13016;52.162;21.034;2023-04-27T03:12:21;100491.83;;;8.16;54.41
24996;BME280;13016;52.162;21.034;2023-04-27T03:18:26;100496.95;;;8.09;54.50
24996;BME280;13016;52.162;21.034;2023-04-27T03:24:27;100497.94;;;8.14;54.59
24996;BME280;13016;52.162;21.034;2023-04-27T03:30:29;100493.59;;;7.98;54.56
24996;BME280;13016;52.162;21.034;2023-04-27T03:36:34;100492.27;;;7.89;55.10
24996;BME280;13016;52.162;21.034;2023-04-27T03:42:35;100497.81;;;8.02;55.08
24996;BME280;13016;52.162;21.034;2023-04-27T03:48:36;100493.55;;;7.92;55.32
24996;BME280;13016;52.162;21.034;2023-04-27T03:54:37;100498.23;;;8.00;55.53
24996;BME280;13016;52.162;21.034;2023-04-27T04:00:58;100501.69;;;8.12;55.40
24996;BME280;13016;52.162;21.034;2023-04-27T04:06:59;100507.67;;;8.12;55.33
24996;BME280;13016;52.162;21.034;2023-04-27T04:13:00;100517.82;;;8.17;55.43
24996;BME280;13016;52.162;21.034;2023-04-27T04:19:00;100527.13;;;8.39;55.02
24996;BME280;13016;52.162;21.034;2023-04-27T04:25:01;100539.55;;;8.61;54.36
24996;BME280;13016;52.162;21.034;2023-04-27T04:31:01;100541.41;;;8.73;53.44
24996;BME280;13016;52.162;21.034;2023-04-27T04:37:01;100540.05;;;8.99;53.19
24996;BME280;13016;52.162;21.034;2023-04-27T04:43:02;100537.83;;;9.14;52.58
24996;BME280;13016;52.162;21.034;2023-04-27T04:49:03;100546.75;;;9.42;52.16
24996;BME280;13016;52.162;21.034;2023-04-27T04:55:05;100550.84;;;9.67;51.59
24996;BME280;13016;52.162;21.034;2023-04-27T05:01:05;100553.70;;;10.04;50.74
24996;BME280;13016;52.162;21.034;2023-04-27T05:07:05;100555.61;;;10.24;49.98
24996;BME280;13016;52.162;21.034;2023-04-27T05:13:07;100561.86;;;10.44;49.52
24996;BME280;13016;52.162;21.034;2023-04-27T05:19:07;100561.27;;;11.13;48.49
24996;BME280;13016;52.162;21.034;2023-04-27T05:25:07;100564.63;;;11.79;46.89
24996;BME280;13016;52.162;21.034;2023-04-27T05:31:09;100565.10;;;12.11;45.44
24996;BME280;13016;52.162;21.034;2023-04-27T05:37:10;100566.94;;;13.07;44.20
24996;BME280;13016;52.162;21.034;2023-04-27T05:43:10;100572.70;;;14.12;42.10
24996;BME280;13016;52.162;21.034;2023-04-27T05:49:10;100576.50;;;14.13;41.32
24996;BME280;13016;52.162;21.034;2023-04-27T05:55:17;100577.34;;;15.45;39.96
24996;BME280;13016;52.162;21.034;2023-04-27T06:07:57;100584.72;;;17.53;35.57
24996;BME280;13016;52.162;21.034;2023-04-27T06:14:41;100591.27;;;18.14;33.89
24996;BME280;13016;52.162;21.034;2023-04-27T06:20:41;100596.86;;;18.39;34.25
24996;BME280;13016;52.162;21.034;2023-04-27T06:26:42;100598.06;;;19.32;32.75
24996;BME280;13016;52.162;21.034;2023-04-27T06:32:42;100604.92;;;20.21;29.99
24996;BME280;13016;52.162;21.034;2023-04-27T06:38:42;100605.70;;;20.53;29.84
24996;BME280;13016;52.162;21.034;2023-04-27T06:44:45;100605.48;;;20.84;29.44
24996;BME280;13016;52.162;21.034;2023-04-27T06:50:46;100606.98;;;20.87;28.97
24996;BME280;13016;52.162;21.034;2023-04-27T06:56:46;100608.44;;;21.08;28.91
24996;BME280;13016;52.162;21.034;2023-04-27T07:02:47;100608.11;;;20.36;29.25
24996;BME280;13016;52.162;21.034;2023-04-27T07:08:47;100613.31;;;20.31;29.72
24996;BME280;13016;52.162;21.034;2023-04-27T07:14:48;100623.29;;;20.85;29.03
24996;BME280;13016;52.162;21.034;2023-04-27T07:20:48;100627.94;;;20.85;29.21
24996;BME280;13016;52.162;21.034;2023-04-27T07:26:49;100629.50;;;20.94;29.18
24996;BME280;13016;52.162;21.034;2023-04-27T07:32:49;100627.51;;;21.91;28.07
24996;BME280;13016;52.162;21.034;2023-04-27T07:38:49;100630.77;;;22.08;27.14
24996;BME280;13016;52.162;21.034;2023-04-27T07:44:53;100628.29;;;21.85;27.32
24996;BME280;13016;52.162;21.034;2023-04-27T07:50:53;100629.36;;;21.47;28.19
24996;BME280;13016;52.162;21.034;2023-04-27T07:56:54;100629.59;;;21.27;28.07
24996;BME280;13016;52.162;21.034;2023-04-27T08:02:57;100636.23;;;21.05;28.15
24996;BME280;13016;52.162;21.034;2023-04-27T08:08:57;100642.79;;;20.89;28.57
24996;BME280;13016;52.162;21.034;2023-04-27T08:14:58;100641.58;;;21.35;27.32
24996;BME280;13016;52.162;21.034;2023-04-27T08:20:58;100642.33;;;21.06;27.81
24996;BME280;13016;52.162;21.034;2023-04-27T08:26:58;100647.41;;;21.35;27.82
24996;BME280;13016;52.162;21.034;2023-04-27T08:32:58;100640.33;;;21.54;27.34
24996;BME280;13016;52.162;21.034;2023-04-27T08:39:02;100640.23;;;21.83;26.69
24996;BME280;13016;52.162;21.034;2023-04-27T08:45:05;100638.48;;;21.35;26.63
24996;BME280;13016;52.162;21.034;2023-04-27T08:51:09;100635.77;;;20.57;28.05
24996;BME280;13016;52.162;21.034;2023-04-27T08:57:11;100633.73;;;20.01;28.23
24996;BME280;13016;52.162;21.034;2023-04-27T09:03:38;100635.95;;;19.73;29.68
24996;BME280;13016;52.162;21.034;2023-04-27T09:09:43;100632.84;;;19.94;28.34
24996;BME280;13016;52.162;21.034;2023-04-27T09:21:46;100624.52;;;20.42;28.59
24996;BME280;13016;52.162;21.034;2023-04-27T09:27:46;100622.42;;;20.21;28.25
24996;BME280;13016;52.162;21.034;2023-04-27T09:33:54;100627.95;;;19.38;28.27
24996;BME280;13016;52.162;21.034;2023-04-27T09:39:54;100624.88;;;18.43;29.97
24996;BME280;13016;52.162;21.034;2023-04-27T09:45:55;100626.36;;;18.23;30.47
24996;BME280;13016;52.162;21.034;2023-04-27T09:51:55;100619.14;;;18.02;30.83
24996;BME280;13016;52.162;21.034;2023-04-27T10:10:45;100631.46;;;17.05;31.63
24996;BME280;13016;52.162;21.034;2023-04-27T10:16:56;100637.08;;;16.65;33.10
24996;BME280;13016;52.162;21.034;2023-04-27T10:22:57;100647.42;;;15.92;34.45
24996;BME280;13016;52.162;21.034;2023-04-27T10:29:05;100645.39;;;15.37;32.68
24996;BME280;13016;52.162;21.034;2023-04-27T10:35:07;100640.20;;;15.53;31.40
24996;BME280;13016;52.162;21.034;2023-04-27T10:41:13;100639.03;;;15.34;31.75
24996;BME280;13016;52.162;21.034;2023-04-27T10:47:15;100637.99;;;15.50;33.01
24996;BME280;13016;52.162;21.034;2023-04-27T10:53:16;100631.74;;;15.36;33.21
24996;BME280;13016;52.162;21.034;2023-04-27T10:59:16;100638.45;;;15.39;32.87
24996;BME280;13016;52.162;21.034;2023-04-27T11:05:21;100641.77;;;15.47;33.39
24996;BME280;13016;52.162;21.034;2023-04-27T11:11:22;100641.98;;;15.69;33.93
24996;BME280;13016;52.162;21.034;2023-04-27T11:17:29;100639.71;;;15.64;34.41
24996;BME280;13016;52.162;21.034;2023-04-27T11:23:30;100642.56;;;15.84;35.04
24996;BME280;13016;52.162;21.034;2023-04-27T11:29:37;100641.55;;;16.54;35.43
24996;BME280;13016;52.162;21.034;2023-04-27T11:35:37;100643.38;;;16.84;33.70
24996;BME280;13016;52.162;21.034;2023-04-27T11:41:38;100645.67;;;17.01;32.31
24996;BME280;13016;52.162;21.034;2023-04-27T11:47:38;100641.06;;;17.18;31.00
24996;BME280;13016;52.162;21.034;2023-04-27T11:53:38;100644.21;;;17.35;31.36
24996;BME280;13016;52.162;21.034;2023-04-27T11:59:39;100644.46;;;17.41;30.45
24996;BME280;13016;52.162;21.034;2023-04-27T12:05:49;100645.60;;;17.59;30.73
24996;BME280;13016;52.162;21.034;2023-04-27T12:11:50;100645.90;;;18.04;30.53
24996;BME280;13016;52.162;21.034;2023-04-27T12:17:50;100634.88;;;17.97;29.65
24996;BME280;13016;52.162;21.034;2023-04-27T12:23:51;100638.73;;;17.88;29.89
24996;BME280;13016;52.162;21.034;2023-04-27T12:30:04;100627.40;;;17.55;29.77
24996;BME280;13016;52.162;21.034;2023-04-27T12:36:22;100638.71;;;17.60;29.48
24996;BME280;13016;52.162;21.034;2023-04-27T12:42:35;100635.92;;;17.17;29.39
24996;BME280;13016;52.162;21.034;2023-04-27T12:48:36;100643.78;;;17.13;29.56
24996;BME280;13016;52.162;21.034;2023-04-27T12:54:56;100644.52;;;17.04;29.62
24996;BME280;13016;52.162;21.034;2023-04-27T13:00:58;100648.48;;;17.16;29.38
24996;BME280;13016;52.162;21.034;2023-04-27T13:07:02;100650.14;;;17.45;29.68
24996;BME280;13016;52.162;21.034;2023-04-27T13:13:04;100655.55;;;17.17;29.18
24996;BME280;13016;52.162;21.034;2023-04-27T13:19:04;100655.09;;;16.99;29.30
24996;BME280;13016;52.162;21.034;2023-04-27T13:25:26;100660.23;;;17.14;29.89
24996;BME280;13016;52.162;21.034;2023-04-27T13:31:49;100665.16;;;17.19;30.21
24996;BME280;13016;52.162;21.034;2023-04-27T13:59:12;100667.56;;;17.64;28.97
24996;BME280;13016;52.162;21.034;2023-04-27T14:44:10;100685.44;;;17.22;28.00
24996;BME280;13016;52.162;21.034;2023-04-27T14:50:49;100691.92;;;16.95;29.24
24996;BME280;13016;52.162;21.034;2023-04-27T15:13:44;100695.70;;;16.65;28.84
24996;BME280;13016;52.162;21.034;2023-04-27T15:19:45;100703.13;;;16.45;29.49
24996;BME280;13016;52.162;21.034;2023-04-27T15:25:57;100700.55;;;16.31;29.68
24996;BME280;13016;52.162;21.034;2023-04-27T15:31:57;100709.95;;;16.30;30.48
24996;BME280;13016;52.162;21.034;2023-04-27T15:37:57;100714.21;;;15.91;31.05
24996;BME280;13016;52.162;21.034;2023-04-27T15:43:58;100709.50;;;15.97;31.04
24996;BME280;13016;52.162;21.034;2023-04-27T15:49:58;100704.44;;;16.18;31.09
24996;BME280;13016;52.162;21.034;2023-04-27T15:55:58;100708.71;;;16.18;30.87
24996;BME280;13016;52.162;21.034;2023-04-27T16:01:59;100715.19;;;16.04;30.80
24996;BME280;13016;52.162;21.034;2023-04-27T16:07:59;100719.81;;;15.86;31.40
24996;BME280;13016;52.162;21.034;2023-04-27T16:29:56;100727.95;;;15.57;32.13
24996;BME280;13016;52.162;21.034;2023-04-27T16:36:06;100727.23;;;15.50;32.27
24996;BME280;13016;52.162;21.034;2023-04-27T16:42:24;100733.91;;;15.51;32.21
24996;BME280;13016;52.162;21.034;2023-04-27T16:48:44;100733.04;;;15.39;32.17
24996;BME280;13016;52.162;21.034;2023-04-27T16:54:54;100736.95;;;15.55;32.54
24996;BME280;13016;52.162;21.034;2023-04-27T17:13:22;100749.59;;;15.66;32.84
24996;BME280;13016;52.162;21.034;2023-04-27T17:19:25;100749.77;;;15.64;33.27
24996;BME280;13016;52.162;21.034;2023-04-27T17:25:26;100758.49;;;15.62;33.15
24996;BME280;13016;52.162;21.034;2023-04-27T17:31:26;100757.95;;;15.57;33.37
24996;BME280;13016;52.162;21.034;2023-04-27T17:37:27;100750.71;;;15.42;33.53
24996;BME280;13016;52.162;21.034;2023-04-27T17:43:27;100753.04;;;15.44;33.40
24996;BME280;13016;52.162;21.034;2023-04-27T17:49:28;100757.84;;;15.40;33.70
24996;BME280;13016;52.162;21.034;2023-04-27T17:55:29;100758.92;;;15.13;34.33
24996;BME280;13016;52.162;21.034;2023-04-27T18:01:30;100765.09;;;15.16;34.46
24996;BME280;13016;52.162;21.034;2023-04-27T18:07:33;100771.50;;;15.11;34.42
24996;BME280;13016;52.162;21.034;2023-04-27T18:13:34;100778.44;;;14.97;34.90
24996;BME280;13016;52.162;21.034;2023-04-27T18:19:57;100789.59;;;14.95;34.98
24996;BME280;13016;52.162;21.034;2023-04-27T18:25:58;100791.61;;;14.82;35.07
24996;BME280;13016;52.162;21.034;2023-04-27T18:31:58;100800.58;;;14.63;35.57
24996;BME280;13016;52.162;21.034;2023-04-27T18:37:59;100797.40;;;14.43;36.30
24996;BME280;13016;52.162;21.034;2023-04-27T18:44:03;100796.46;;;14.29;36.40
24996;BME280;13016;52.162;21.034;2023-04-27T18:50:05;100799.06;;;14.14;36.60
24996;BME280;13016;52.162;21.034;2023-04-27T18:56:05;100797.58;;;13.84;37.43
24996;BME280;13016;52.162;21.034;2023-04-27T19:02:06;100802.21;;;13.73;37.80
24996;BME280;13016;52.162;21.034;2023-04-27T19:08:06;100805.33;;;13.64;38.25
24996;BME280;13016;52.162;21.034;2023-04-27T19:14:22;100803.12;;;13.46;38.87
24996;BME280;13016;52.162;21.034;2023-04-27T19:20:23;100804.32;;;13.10;39.64
24996;BME280;13016;52.162;21.034;2023-04-27T19:26:24;100802.05;;;13.09;39.66
24996;BME280;13016;52.162;21.034;2023-04-27T19:32:24;100805.86;;;13.05;39.70
24996;BME280;13016;52.162;21.034;2023-04-27T19:38:24;100803.55;;;12.91;39.97
24996;BME280;13016;52.162;21.034;2023-04-27T19:44:25;100806.08;;;12.82;40.30
24996;BME280;13016;52.162;21.034;2023-04-27T19:50:25;100806.23;;;12.83;40.32
24996;BME280;13016;52.162;21.034;2023-04-27T19:56:25;100803.65;;;12.70;40.46
24996;BME280;13016;52.162;21.034;2023-04-27T20:02:26;100808.98;;;12.69;40.57
24996;BME280;13016;52.162;21.034;2023-04-27T20:08:26;100812.39;;;12.60;40.73
24996;BME280;13016;52.162;21.034;2023-04-27T20:14:26;100815.15;;;12.50;40.93
24996;BME280;13016;52.162;21.034;2023-04-27T20:20:27;100812.20;;;12.38;41.04
24996;BME280;13016;52.162;21.034;2023-04-27T20:26:27;100818.05;;;12.32;41.15
24996;BME280;13016;52.162;21.034;2023-04-27T20:32:27;100820.60;;;12.34;41.29
24996;BME280;13016;52.162;21.034;2023-04-27T20:38:28;100832.83;;;12.31;41.23
24996;BME280;13016;52.162;21.034;2023-04-27T20:44:28;100838.08;;;12.17;41.81
24996;BME280;13016;52.162;21.034;2023-04-27T20:50:29;100840.20;;;11.94;42.48
24996;BME280;13016;52.162;21.034;2023-04-27T20:56:29;100839.05;;;11.86;42.38
24996;BME280;13016;52.162;21.034;2023-04-27T21:02:30;100842.64;;;11.80;42.62
24996;BME280;13016;52.162;21.034;2023-04-27T21:08:31;100842.33;;;11.76;42.80
24996;BME280;13016;52.162;21.034;2023-04-27T21:14:31;100844.46;;;11.69;42.82
24996;BME280;13016;52.162;21.034;2023-04-27T21:20:32;100845.92;;;11.59;43.10
24996;BME280;13016;52.162;21.034;2023-04-27T21:26:33;100845.45;;;11.52;43.08
24996;BME280;13016;52.162;21.034;2023-04-27T21:32:35;100842.95;;;11.34;43.82
24996;BME280;13016;52.162;21.034;2023-04-27T21:38:36;100847.42;;;11.26;44.11
24996;BME280;13016;52.162;21.034;2023-04-27T21:44:38;100846.51;;;11.24;44.34
24996;BME280;13016;52.162;21.034;2023-04-27T21:50:38;100848.86;;;11.26;44.29
24996;BME280;13016;52.162;21.034;2023-04-27T21:56:38;100851.52;;;11.38;43.86
24996;BME280;13016;52.162;21.034;2023-04-27T22:02:45;100859.19;;;11.37;43.97
24996;BME280;13016;52.162;21.034;2023-04-27T22:08:46;100865.71;;;11.28;44.35
24996;BME280;13016;52.162;21.034;2023-04-27T22:14:46;100866.86;;;11.14;44.91
24996;BME280;13016;52.162;21.034;2023-04-27T22:20:46;100865.92;;;11.21;44.51
24996;BME280;13016;52.162;21.034;2023-04-27T22:26:47;100869.37;;;11.29;44.35
24996;BME280;13016;52.162;21.034;2023-04-27T22:32:47;100871.98;;;11.26;44.49
24996;BME280;13016;52.162;21.034;2023-04-27T22:38:49;100869.45;;;11.18;44.71
24996;BME280;13016;52.162;21.034;2023-04-27T22:44:49;100867.98;;;11.25;44.53
24996;BME280;13016;52.162;21.034;2023-04-27T22:50:50;100862.75;;;11.18;44.51
24996;BME280;13016;52.162;21.034;2023-04-27T22:56:50;100864.14;;;11.12;44.69
24996;BME280;13016;52.162;21.034;2023-04-27T23:02:50;100873.19;;;11.15;44.57
24996;BME280;13016;52.162;21.034;2023-04-27T23:08:51;100875.64;;;11.15;44.74
24996;BME280;13016;52.162;21.034;2023-04-27T23:14:51;100876.23;;;11.10;44.89
24996;BME280;13016;52.162;21.034;2023-04-27T23:20:52;100878.07;;;11.06;45.32
24996;BME280;13016;52.162;21.034;2023-04-27T23:26:52;100881.95;;;11.16;45.41
24996;BME280;13016;52.162;21.034;2023-04-27T23:32:53;100879.42;;;11.13;45.08
24996;BME280;13016;52.162;21.034;2023-04-27T23:38:54;100875.61;;;11.18;45.22
24996;BME280;13016;52.162;21.034;2023-04-27T23:44:54;100877.84;;;11.13;45.27
24996;BME280;13016;52.162;21.034;2023-04-27T23:51:02;100876.13;;;11.06;45.63
24996;BME280;13016;52.162;21.034;2023-04-27T23:57:03;100882.05;;;10.95;45.56
